sensor_id;sensor_type;location;lat;lon;timestamp;P1;durP1;ratioP1;P2;durP2;ratioP2
48679;SDS011;34475;51.658;5.634;2022-08-19T00:00:00;0.6;;;0.6;;
48679;SDS011;34475;51.658;5.634;2022-08-19T00:01:00;0.6;;;0.6;;
48679;SDS011;34475;51.658;5.634;2022-08-19T00:02:00;0.6;;;0.6;;
48679;SDS011;34475;51.658;5.634;2022-08-19T00:03:00;0.6;;;0.6;;
48679;SDS011;34475;51.658;5.634;2022-08-19T00:04:02;0.6;;;0.6;;
48679;SDS011;34475;51.658;5.634;2022-08-19T00:05:00;0.5;;;0.5;;
48679;SDS011;34475;51.658;5.634;2022-08-19T00:06:00;0.5;;;0.5;;
48679;SDS011;34475;51.658;5.634;2022-08-19T00:07:00;0.5;;;0.5;;
48679;SDS011;34475;51.658;5.634;2022-08-19T00:08:00;0.5;;;0.5;;
48679;SDS011;34475;51.658;5.634;2022-08-19T00:09:00;0.5;;;0.5;;
48679;SDS011;34475;51.658;5.634;2022-08-19T00:10:00;0.5;;;0.5;;
48679;SDS011;34475;51.658;5.634;2022-08-19T00:11:00;0.5;;;0.5;;
48679;SDS011;34475;51.658;5.634;2022-08-19T00:12:00;0.5;;;0.5;;
48679;SDS011;34475;51.658;5.634;2022-08-19T00:13:00;0.5;;;0.5;;
48679;SDS011;34475;51.658;5.634;2022-08-19T00:14:00;0.5;;;0.5;;
48679;SDS011;34475;51.658;5.634;2022-08-19T00:15:00;0.5;;;0.5;;
48679;SDS011;34475;51.658;5.634;2022-08-19T00:16:00;0.5;;;0.5;;
48679;SDS011;34475;51.658;5.634;2022-08-19T00:17:00;0.5;;;0.5;;
48679;SDS011;34475;51.658;5.634;2022-08-19T00:18:00;0.5;;;0.5;;
48679;SDS011;34475;51.658;5.634;2022-08-19T00:19:00;0.5;;;0.5;;
48679;SDS011;34475;51.658;5.634;2022-08-19T00:20:00;0.5;;;0.5;;
48679;SDS011;34475;51.658;5.634;2022-08-19T00:21:00;0.5;;;0.5;;
48679;SDS011;34475;51.658;5.634;2022-08-19T00:22:00;0.5;;;0.5;;
48679;SDS011;34475;51.658;5.634;2022-08-19T00:23:00;0.5;;;0.5;;
48679;SDS011;34475;51.658;5.634;2022-08-19T00:24:00;0.5;;;0.5;;
48679;SDS011;34475;51.658;5.634;2022-08-19T00:25:02;0.8;;;0.8;;
48679;SDS011;34475;51.658;5.634;2022-08-19T00:26:00;0.8;;;0.8;;
48679;SDS011;34475;51.658;5.634;2022-08-19T00:27:10;0.8;;;0.8;;
48679;SDS011;34475;51.658;5.634;2022-08-19T00:28:00;0.8;;;0.8;;
48679;SDS011;34475;51.658;5.634;2022-08-19T00:29:00;0.8;;;0.8;;
48679;SDS011;34475;51.658;5.634;2022-08-19T00:30:03;0.8;;;0.8;;
48679;SDS011;34475;51.658;5.634;2022-08-19T00:31:01;0.8;;;0.8;;
48679;SDS011;34475;51.658;5.634;2022-08-19T00:32:00;0.8;;;0.8;;
48679;SDS011;34475;51.658;5.634;2022-08-19T00:33:00;0.8;;;0.8;;
48679;SDS011;34475;51.658;5.634;2022-08-19T00:34:00;0.8;;;0.8;;
48679;SDS011;34475;51.658;5.634;2022-08-19T00:35:00;0.8;;;0.8;;
48679;SDS011;34475;51.658;5.634;2022-08-19T00:36:00;0.8;;;0.8;;
48679;SDS011;34475;51.658;5.634;2022-08-19T00:37:00;0.8;;;0.8;;
48679;SDS011;34475;51.658;5.634;2022-08-19T00:38:00;0.8;;;0.8;;
48679;SDS011;34475;51.658;5.634;2022-08-19T00:39:00;0.8;;;0.8;;
48679;SDS011;34475;51.658;5.634;2022-08-19T00:40:03;0.8;;;0.8;;
48679;SDS011;34475;51.658;5.634;2022-08-19T00:41:00;0.8;;;0.8;;
48679;SDS011;34475;51.658;5.634;2022-08-19T00:42:00;0.8;;;0.8;;
48679;SDS011;34475;51.658;5.634;2022-08-19T00:43:00;0.8;;;0.8;;
48679;SDS011;34475;51.658;5.634;2022-08-19T00:44:04;0.8;;;0.8;;
48679;SDS011;34475;51.658;5.634;2022-08-19T00:45:00;0.9;;;0.8;;
48679;SDS011;34475;51.658;5.634;2022-08-19T00:46:04;0.9;;;0.8;;
48679;SDS011;34475;51.658;5.634;2022-08-19T00:47:01;0.9;;;0.8;;
48679;SDS011;34475;51.658;5.634;2022-08-19T00:48:03;0.9;;;0.8;;
48679;SDS011;34475;51.658;5.634;2022-08-19T00:49:02;0.9;;;0.8;;
48679;SDS011;34475;51.658;5.634;2022-08-19T00:50:00;0.9;;;0.8;;
48679;SDS011;34475;51.658;5.634;2022-08-19T00:51:01;0.9;;;0.8;;
48679;SDS011;34475;51.658;5.634;2022-08-19T00:52:04;0.9;;;0.8;;
48679;SDS011;34475;51.658;5.634;2022-08-19T00:53:04;0.9;;;0.8;;
48679;SDS011;34475;51.658;5.634;2022-08-19T00:54:02;0.9;;;0.8;;
48679;SDS011;34475;51.658;5.634;2022-08-19T00:55:01;0.9;;;0.8;;
48679;SDS011;34475;51.658;5.634;2022-08-19T00:56:01;0.9;;;0.8;;
48679;SDS011;34475;51.658;5.634;2022-08-19T00:57:04;0.9;;;0.8;;
48679;SDS011;34475;51.658;5.634;2022-08-19T00:58:04;0.9;;;0.8;;
48679;SDS011;34475;51.658;5.634;2022-08-19T00:59:01;0.9;;;0.8;;
48679;SDS011;34475;51.658;5.634;2022-08-19T01:00:05;0.9;;;0.8;;
48679;SDS011;34475;51.658;5.634;2022-08-19T01:01:01;0.9;;;0.8;;
48679;SDS011;34475;51.658;5.634;2022-08-19T01:02:00;0.9;;;0.8;;
48679;SDS011;34475;51.658;5.634;2022-08-19T01:03:00;0.9;;;0.8;;
48679;SDS011;34475;51.658;5.634;2022-08-19T01:04:00;0.9;;;0.8;;
48679;SDS011;34475;51.658;5.634;2022-08-19T01:05:03;0.4;;;0.4;;
48679;SDS011;34475;51.658;5.634;2022-08-19T01:06:00;0.4;;;0.4;;
48679;SDS011;34475;51.658;5.634;2022-08-19T01:07:02;0.4;;;0.4;;
48679;SDS011;34475;51.658;5.634;2022-08-19T01:08:02;0.4;;;0.4;;
48679;SDS011;34475;51.658;5.634;2022-08-19T01:09:00;0.4;;;0.4;;
48679;SDS011;34475;51.658;5.634;2022-08-19T01:10:00;0.4;;;0.4;;
48679;SDS011;34475;51.658;5.634;2022-08-19T01:11:00;0.4;;;0.4;;
48679;SDS011;34475;51.658;5.634;2022-08-19T01:12:00;0.4;;;0.4;;
48679;SDS011;34475;51.658;5.634;2022-08-19T01:13:01;0.4;;;0.4;;
48679;SDS011;34475;51.658;5.634;2022-08-19T01:14:00;0.4;;;0.4;;
48679;SDS011;34475;51.658;5.634;2022-08-19T01:15:00;0.4;;;0.4;;
48679;SDS011;34475;51.658;5.634;2022-08-19T01:16:08;0.4;;;0.4;;
48679;SDS011;34475;51.658;5.634;2022-08-19T01:17:00;0.4;;;0.4;;
48679;SDS011;34475;51.658;5.634;2022-08-19T01:18:05;0.4;;;0.4;;
48679;SDS011;34475;51.658;5.634;2022-08-19T01:19:00;0.4;;;0.4;;
48679;SDS011;34475;51.658;5.634;2022-08-19T01:20:00;0.4;;;0.4;;
48679;SDS011;34475;51.658;5.634;2022-08-19T01:21:05;0.4;;;0.4;;
48679;SDS011;34475;51.658;5.634;2022-08-19T01:23:01;0.4;;;0.4;;
48679;SDS011;34475;51.658;5.634;2022-08-19T01:24:00;0.4;;;0.4;;
48679;SDS011;34475;51.658;5.634;2022-08-19T01:25:00;1.4;;;1.3;;
48679;SDS011;34475;51.658;5.634;2022-08-19T01:26:00;1.4;;;1.3;;
48679;SDS011;34475;51.658;5.634;2022-08-19T01:27:04;1.4;;;1.3;;
48679;SDS011;34475;51.658;5.634;2022-08-19T01:28:19;1.4;;;1.3;;
48679;SDS011;34475;51.658;5.634;2022-08-19T01:29:01;1.4;;;1.3;;
48679;SDS011;34475;51.658;5.634;2022-08-19T01:30:00;1.4;;;1.3;;
48679;SDS011;34475;51.658;5.634;2022-08-19T01:31:00;1.4;;;1.3;;
48679;SDS011;34475;51.658;5.634;2022-08-19T01:32:00;1.4;;;1.3;;
48679;SDS011;34475;51.658;5.634;2022-08-19T01:33:01;1.4;;;1.3;;
48679;SDS011;34475;51.658;5.634;2022-08-19T01:34:01;1.4;;;1.3;;
48679;SDS011;34475;51.658;5.634;2022-08-19T01:35:02;1.4;;;1.3;;
48679;SDS011;34475;51.658;5.634;2022-08-19T01:36:11;1.4;;;1.3;;
48679;SDS011;34475;51.658;5.634;2022-08-19T01:37:06;1.4;;;1.3;;
48679;SDS011;34475;51.658;5.634;2022-08-19T01:38:04;1.4;;;1.3;;
48679;SDS011;34475;51.658;5.634;2022-08-19T01:39:03;1.4;;;1.3;;
48679;SDS011;34475;51.658;5.634;2022-08-19T01:40:00;1.4;;;1.3;;
48679;SDS011;34475;51.658;5.634;2022-08-19T01:41:01;1.4;;;1.3;;
48679;SDS011;34475;51.658;5.634;2022-08-19T01:42:03;1.4;;;1.3;;
48679;SDS011;34475;51.658;5.634;2022-08-19T01:43:00;1.4;;;1.3;;
48679;SDS011;34475;51.658;5.634;2022-08-19T01:44:10;1.4;;;1.3;;
48679;SDS011;34475;51.658;5.634;2022-08-19T01:45:00;0.5;;;0.5;;
48679;SDS011;34475;51.658;5.634;2022-08-19T01:46:00;0.5;;;0.5;;
48679;SDS011;34475;51.658;5.634;2022-08-19T01:47:00;0.5;;;0.5;;
48679;SDS011;34475;51.658;5.634;2022-08-19T01:48:03;0.5;;;0.5;;
48679;SDS011;34475;51.658;5.634;2022-08-19T01:49:02;0.5;;;0.5;;
48679;SDS011;34475;51.658;5.634;2022-08-19T01:50:00;0.5;;;0.5;;
48679;SDS011;34475;51.658;5.634;2022-08-19T01:51:00;0.5;;;0.5;;
48679;SDS011;34475;51.658;5.634;2022-08-19T01:52:00;0.5;;;0.5;;
48679;SDS011;34475;51.658;5.634;2022-08-19T01:53:09;0.5;;;0.5;;
48679;SDS011;34475;51.658;5.634;2022-08-19T01:54:00;0.5;;;0.5;;
48679;SDS011;34475;51.658;5.634;2022-08-19T01:55:00;0.5;;;0.5;;
48679;SDS011;34475;51.658;5.634;2022-08-19T01:56:00;0.5;;;0.5;;
48679;SDS011;34475;51.658;5.634;2022-08-19T01:57:03;0.5;;;0.5;;
48679;SDS011;34475;51.658;5.634;2022-08-19T01:58:02;0.5;;;0.5;;
48679;SDS011;34475;51.658;5.634;2022-08-19T01:59:02;0.5;;;0.5;;
48679;SDS011;34475;51.658;5.634;2022-08-19T02:00:02;0.5;;;0.5;;
48679;SDS011;34475;51.658;5.634;2022-08-19T02:01:00;0.5;;;0.5;;
48679;SDS011;34475;51.658;5.634;2022-08-19T02:02:00;0.5;;;0.5;;
48679;SDS011;34475;51.658;5.634;2022-08-19T02:03:00;0.5;;;0.5;;
48679;SDS011;34475;51.658;5.634;2022-08-19T02:04:00;0.5;;;0.5;;
48679;SDS011;34475;51.658;5.634;2022-08-19T02:05:00;0.3;;;0.3;;
48679;SDS011;34475;51.658;5.634;2022-08-19T02:06:03;0.3;;;0.3;;
48679;SDS011;34475;51.658;5.634;2022-08-19T02:07:00;0.3;;;0.3;;
48679;SDS011;34475;51.658;5.634;2022-08-19T02:08:00;0.3;;;0.3;;
48679;SDS011;34475;51.658;5.634;2022-08-19T02:09:00;0.3;;;0.3;;
48679;SDS011;34475;51.658;5.634;2022-08-19T02:10:11;0.3;;;0.3;;
48679;SDS011;34475;51.658;5.634;2022-08-19T02:11:00;0.3;;;0.3;;
48679;SDS011;34475;51.658;5.634;2022-08-19T02:12:00;0.3;;;0.3;;
48679;SDS011;34475;51.658;5.634;2022-08-19T02:13:00;0.3;;;0.3;;
48679;SDS011;34475;51.658;5.634;2022-08-19T02:14:03;0.3;;;0.3;;
48679;SDS011;34475;51.658;5.634;2022-08-19T02:15:02;0.3;;;0.3;;
48679;SDS011;34475;51.658;5.634;2022-08-19T02:16:04;0.3;;;0.3;;
48679;SDS011;34475;51.658;5.634;2022-08-19T02:17:00;0.3;;;0.3;;
48679;SDS011;34475;51.658;5.634;2022-08-19T02:18:00;0.3;;;0.3;;
48679;SDS011;34475;51.658;5.634;2022-08-19T02:19:00;0.3;;;0.3;;
48679;SDS011;34475;51.658;5.634;2022-08-19T02:20:00;0.3;;;0.3;;
48679;SDS011;34475;51.658;5.634;2022-08-19T02:21:00;0.3;;;0.3;;
48679;SDS011;34475;51.658;5.634;2022-08-19T02:22:00;0.3;;;0.3;;
48679;SDS011;34475;51.658;5.634;2022-08-19T02:23:01;0.3;;;0.3;;
48679;SDS011;34475;51.658;5.634;2022-08-19T02:24:00;0.3;;;0.3;;
48679;SDS011;34475;51.658;5.634;2022-08-19T02:25:00;1.2;;;1.2;;
48679;SDS011;34475;51.658;5.634;2022-08-19T02:26:00;1.2;;;1.2;;
48679;SDS011;34475;51.658;5.634;2022-08-19T02:27:00;1.2;;;1.2;;
48679;SDS011;34475;51.658;5.634;2022-08-19T02:28:00;1.2;;;1.2;;
48679;SDS011;34475;51.658;5.634;2022-08-19T02:29:00;1.2;;;1.2;;
48679;SDS011;34475;51.658;5.634;2022-08-19T02:30:01;1.2;;;1.2;;
48679;SDS011;34475;51.658;5.634;2022-08-19T02:31:02;1.2;;;1.2;;
48679;SDS011;34475;51.658;5.634;2022-08-19T02:32:00;1.2;;;1.2;;
48679;SDS011;34475;51.658;5.634;2022-08-19T02:33:00;1.2;;;1.2;;
48679;SDS011;34475;51.658;5.634;2022-08-19T02:34:00;1.2;;;1.2;;
48679;SDS011;34475;51.658;5.634;2022-08-19T02:35:00;1.2;;;1.2;;
48679;SDS011;34475;51.658;5.634;2022-08-19T02:36:03;1.2;;;1.2;;
48679;SDS011;34475;51.658;5.634;2022-08-19T02:37:04;1.2;;;1.2;;
48679;SDS011;34475;51.658;5.634;2022-08-19T02:38:10;1.2;;;1.2;;
48679;SDS011;34475;51.658;5.634;2022-08-19T02:39:00;1.2;;;1.2;;
48679;SDS011;34475;51.658;5.634;2022-08-19T02:40:00;1.2;;;1.2;;
48679;SDS011;34475;51.658;5.634;2022-08-19T02:41:04;1.2;;;1.2;;
48679;SDS011;34475;51.658;5.634;2022-08-19T02:42:02;1.2;;;1.2;;
48679;SDS011;34475;51.658;5.634;2022-08-19T02:43:03;1.2;;;1.2;;
48679;SDS011;34475;51.658;5.634;2022-08-19T02:44:11;1.2;;;1.2;;
48679;SDS011;34475;51.658;5.634;2022-08-19T02:45:00;0.7;;;0.7;;
48679;SDS011;34475;51.658;5.634;2022-08-19T02:46:00;0.7;;;0.7;;
48679;SDS011;34475;51.658;5.634;2022-08-19T02:47:00;0.7;;;0.7;;
48679;SDS011;34475;51.658;5.634;2022-08-19T02:48:04;0.7;;;0.7;;
48679;SDS011;34475;51.658;5.634;2022-08-19T02:49:03;0.7;;;0.7;;
48679;SDS011;34475;51.658;5.634;2022-08-19T02:50:02;0.7;;;0.7;;
48679;SDS011;34475;51.658;5.634;2022-08-19T02:51:00;0.7;;;0.7;;
48679;SDS011;34475;51.658;5.634;2022-08-19T02:52:00;0.7;;;0.7;;
48679;SDS011;34475;51.658;5.634;2022-08-19T02:53:00;0.7;;;0.7;;
48679;SDS011;34475;51.658;5.634;2022-08-19T02:54:01;0.7;;;0.7;;
48679;SDS011;34475;51.658;5.634;2022-08-19T02:55:01;0.7;;;0.7;;
48679;SDS011;34475;51.658;5.634;2022-08-19T02:56:00;0.7;;;0.7;;
48679;SDS011;34475;51.658;5.634;2022-08-19T02:57:00;0.7;;;0.7;;
48679;SDS011;34475;51.658;5.634;2022-08-19T02:58:00;0.7;;;0.7;;
48679;SDS011;34475;51.658;5.634;2022-08-19T02:59:00;0.7;;;0.7;;
48679;SDS011;34475;51.658;5.634;2022-08-19T03:00:02;0.7;;;0.7;;
48679;SDS011;34475;51.658;5.634;2022-08-19T03:01:00;0.7;;;0.7;;
48679;SDS011;34475;51.658;5.634;2022-08-19T03:02:00;0.7;;;0.7;;
48679;SDS011;34475;51.658;5.634;2022-08-19T03:03:00;0.7;;;0.7;;
48679;SDS011;34475;51.658;5.634;2022-08-19T03:04:03;0.7;;;0.7;;
48679;SDS011;34475;51.658;5.634;2022-08-19T03:05:01;1.1;;;0.6;;
48679;SDS011;34475;51.658;5.634;2022-08-19T03:07:12;1.1;;;0.6;;
48679;SDS011;34475;51.658;5.634;2022-08-19T03:08:00;1.1;;;0.6;;
48679;SDS011;34475;51.658;5.634;2022-08-19T03:09:01;1.1;;;0.6;;
48679;SDS011;34475;51.658;5.634;2022-08-19T03:10:00;1.1;;;0.6;;
48679;SDS011;34475;51.658;5.634;2022-08-19T03:11:00;1.1;;;0.6;;
48679;SDS011;34475;51.658;5.634;2022-08-19T03:12:00;1.1;;;0.6;;
48679;SDS011;34475;51.658;5.634;2022-08-19T03:13:04;1.1;;;0.6;;
48679;SDS011;34475;51.658;5.634;2022-08-19T03:14:01;1.1;;;0.6;;
48679;SDS011;34475;51.658;5.634;2022-08-19T03:15:00;1.1;;;0.6;;
48679;SDS011;34475;51.658;5.634;2022-08-19T03:16:04;1.1;;;0.6;;
48679;SDS011;34475;51.658;5.634;2022-08-19T03:17:00;1.1;;;0.6;;
48679;SDS011;34475;51.658;5.634;2022-08-19T03:18:00;1.1;;;0.6;;
48679;SDS011;34475;51.658;5.634;2022-08-19T03:19:01;1.1;;;0.6;;
48679;SDS011;34475;51.658;5.634;2022-08-19T03:20:00;1.1;;;0.6;;
48679;SDS011;34475;51.658;5.634;2022-08-19T03:21:00;1.1;;;0.6;;
48679;SDS011;34475;51.658;5.634;2022-08-19T03:22:00;1.1;;;0.6;;
48679;SDS011;34475;51.658;5.634;2022-08-19T03:23:00;1.1;;;0.6;;
48679;SDS011;34475;51.658;5.634;2022-08-19T03:24:03;1.1;;;0.6;;
48679;SDS011;34475;51.658;5.634;2022-08-19T03:25:00;1.5;;;1.4;;
48679;SDS011;34475;51.658;5.634;2022-08-19T03:26:14;1.5;;;1.4;;
48679;SDS011;34475;51.658;5.634;2022-08-19T03:27:00;1.5;;;1.4;;
48679;SDS011;34475;51.658;5.634;2022-08-19T03:28:00;1.5;;;1.4;;
48679;SDS011;34475;51.658;5.634;2022-08-19T03:29:05;1.5;;;1.4;;
48679;SDS011;34475;51.658;5.634;2022-08-19T03:30:01;1.5;;;1.4;;
48679;SDS011;34475;51.658;5.634;2022-08-19T03:31:06;1.5;;;1.4;;
48679;SDS011;34475;51.658;5.634;2022-08-19T03:32:03;1.5;;;1.4;;
48679;SDS011;34475;51.658;5.634;2022-08-19T03:33:00;1.5;;;1.4;;
48679;SDS011;34475;51.658;5.634;2022-08-19T03:34:00;1.5;;;1.4;;
48679;SDS011;34475;51.658;5.634;2022-08-19T03:35:00;1.5;;;1.4;;
48679;SDS011;34475;51.658;5.634;2022-08-19T03:36:10;1.5;;;1.4;;
48679;SDS011;34475;51.658;5.634;2022-08-19T03:37:05;1.5;;;1.4;;
48679;SDS011;34475;51.658;5.634;2022-08-19T03:38:00;1.5;;;1.4;;
48679;SDS011;34475;51.658;5.634;2022-08-19T03:39:01;1.5;;;1.4;;
48679;SDS011;34475;51.658;5.634;2022-08-19T03:40:02;1.5;;;1.4;;
48679;SDS011;34475;51.658;5.634;2022-08-19T03:41:04;1.5;;;1.4;;
48679;SDS011;34475;51.658;5.634;2022-08-19T03:42:10;1.5;;;1.4;;
48679;SDS011;34475;51.658;5.634;2022-08-19T03:43:01;1.5;;;1.4;;
48679;SDS011;34475;51.658;5.634;2022-08-19T03:44:00;1.5;;;1.4;;
48679;SDS011;34475;51.658;5.634;2022-08-19T03:45:00;1.0;;;1.0;;
48679;SDS011;34475;51.658;5.634;2022-08-19T03:46:03;1.0;;;1.0;;
48679;SDS011;34475;51.658;5.634;2022-08-19T03:47:00;1.0;;;1.0;;
48679;SDS011;34475;51.658;5.634;2022-08-19T03:48:00;1.0;;;1.0;;
48679;SDS011;34475;51.658;5.634;2022-08-19T03:49:07;1.0;;;1.0;;
48679;SDS011;34475;51.658;5.634;2022-08-19T03:50:00;1.0;;;1.0;;
48679;SDS011;34475;51.658;5.634;2022-08-19T03:51:00;1.0;;;1.0;;
48679;SDS011;34475;51.658;5.634;2022-08-19T03:52:00;1.0;;;1.0;;
48679;SDS011;34475;51.658;5.634;2022-08-19T03:53:00;1.0;;;1.0;;
48679;SDS011;34475;51.658;5.634;2022-08-19T03:54:03;1.0;;;1.0;;
48679;SDS011;34475;51.658;5.634;2022-08-19T03:55:00;1.0;;;1.0;;
48679;SDS011;34475;51.658;5.634;2022-08-19T03:56:00;1.0;;;1.0;;
48679;SDS011;34475;51.658;5.634;2022-08-19T03:57:00;1.0;;;1.0;;
48679;SDS011;34475;51.658;5.634;2022-08-19T03:58:00;1.0;;;1.0;;
48679;SDS011;34475;51.658;5.634;2022-08-19T03:59:00;1.0;;;1.0;;
48679;SDS011;34475;51.658;5.634;2022-08-19T04:00:11;1.0;;;1.0;;
48679;SDS011;34475;51.658;5.634;2022-08-19T04:01:00;1.0;;;1.0;;
48679;SDS011;34475;51.658;5.634;2022-08-19T04:02:02;1.0;;;1.0;;
48679;SDS011;34475;51.658;5.634;2022-08-19T04:03:01;1.0;;;1.0;;
48679;SDS011;34475;51.658;5.634;2022-08-19T04:04:00;1.0;;;1.0;;
48679;SDS011;34475;51.658;5.634;2022-08-19T04:05:00;1.5;;;1.2;;
48679;SDS011;34475;51.658;5.634;2022-08-19T04:06:11;1.5;;;1.2;;
48679;SDS011;34475;51.658;5.634;2022-08-19T04:07:00;1.5;;;1.2;;
48679;SDS011;34475;51.658;5.634;2022-08-19T04:08:00;1.5;;;1.2;;
48679;SDS011;34475;51.658;5.634;2022-08-19T04:09:03;1.5;;;1.2;;
48679;SDS011;34475;51.658;5.634;2022-08-19T04:10:00;1.5;;;1.2;;
48679;SDS011;34475;51.658;5.634;2022-08-19T04:11:00;1.5;;;1.2;;
48679;SDS011;34475;51.658;5.634;2022-08-19T04:12:00;1.5;;;1.2;;
48679;SDS011;34475;51.658;5.634;2022-08-19T04:13:00;1.5;;;1.2;;
48679;SDS011;34475;51.658;5.634;2022-08-19T04:14:04;1.5;;;1.2;;
48679;SDS011;34475;51.658;5.634;2022-08-19T04:15:00;1.5;;;1.2;;
48679;SDS011;34475;51.658;5.634;2022-08-19T04:16:00;1.5;;;1.2;;
48679;SDS011;34475;51.658;5.634;2022-08-19T04:17:02;1.5;;;1.2;;
48679;SDS011;34475;51.658;5.634;2022-08-19T04:18:00;1.5;;;1.2;;
48679;SDS011;34475;51.658;5.634;2022-08-19T04:19:02;1.5;;;1.2;;
48679;SDS011;34475;51.658;5.634;2022-08-19T04:20:00;1.5;;;1.2;;
48679;SDS011;34475;51.658;5.634;2022-08-19T04:21:00;1.5;;;1.2;;
48679;SDS011;34475;51.658;5.634;2022-08-19T04:22:00;1.5;;;1.2;;
48679;SDS011;34475;51.658;5.634;2022-08-19T04:23:00;1.5;;;1.2;;
48679;SDS011;34475;51.658;5.634;2022-08-19T04:24:00;1.5;;;1.2;;
48679;SDS011;34475;51.658;5.634;2022-08-19T04:25:00;0.8;;;0.8;;
48679;SDS011;34475;51.658;5.634;2022-08-19T04:26:00;0.8;;;0.8;;
48679;SDS011;34475;51.658;5.634;2022-08-19T04:27:01;0.8;;;0.8;;
48679;SDS011;34475;51.658;5.634;2022-08-19T04:28:00;0.8;;;0.8;;
48679;SDS011;34475;51.658;5.634;2022-08-19T04:29:04;0.8;;;0.8;;
48679;SDS011;34475;51.658;5.634;2022-08-19T04:30:00;0.8;;;0.8;;
48679;SDS011;34475;51.658;5.634;2022-08-19T04:31:00;0.8;;;0.8;;
48679;SDS011;34475;51.658;5.634;2022-08-19T04:32:09;0.8;;;0.8;;
48679;SDS011;34475;51.658;5.634;2022-08-19T04:33:00;0.8;;;0.8;;
48679;SDS011;34475;51.658;5.634;2022-08-19T04:34:03;0.8;;;0.8;;
48679;SDS011;34475;51.658;5.634;2022-08-19T04:35:02;0.8;;;0.8;;
48679;SDS011;34475;51.658;5.634;2022-08-19T04:36:00;0.8;;;0.8;;
48679;SDS011;34475;51.658;5.634;2022-08-19T04:37:00;0.8;;;0.8;;
48679;SDS011;34475;51.658;5.634;2022-08-19T04:38:00;0.8;;;0.8;;
48679;SDS011;34475;51.658;5.634;2022-08-19T04:39:04;0.8;;;0.8;;
48679;SDS011;34475;51.658;5.634;2022-08-19T04:40:12;0.8;;;0.8;;
48679;SDS011;34475;51.658;5.634;2022-08-19T04:41:12;0.8;;;0.8;;
48679;SDS011;34475;51.658;5.634;2022-08-19T04:42:10;0.8;;;0.8;;
48679;SDS011;34475;51.658;5.634;2022-08-19T04:43:00;0.8;;;0.8;;
48679;SDS011;34475;51.658;5.634;2022-08-19T04:44:04;0.8;;;0.8;;
48679;SDS011;34475;51.658;5.634;2022-08-19T04:45:00;1.0;;;1.0;;
48679;SDS011;34475;51.658;5.634;2022-08-19T04:46:10;1.0;;;1.0;;
48679;SDS011;34475;51.658;5.634;2022-08-19T04:47:02;1.0;;;1.0;;
48679;SDS011;34475;51.658;5.634;2022-08-19T04:48:10;1.0;;;1.0;;
48679;SDS011;34475;51.658;5.634;2022-08-19T04:49:11;1.0;;;1.0;;
48679;SDS011;34475;51.658;5.634;2022-08-19T04:50:00;1.0;;;1.0;;
48679;SDS011;34475;51.658;5.634;2022-08-19T04:51:00;1.0;;;1.0;;
48679;SDS011;34475;51.658;5.634;2022-08-19T04:52:00;1.0;;;1.0;;
48679;SDS011;34475;51.658;5.634;2022-08-19T04:53:00;1.0;;;1.0;;
48679;SDS011;34475;51.658;5.634;2022-08-19T04:54:01;1.0;;;1.0;;
48679;SDS011;34475;51.658;5.634;2022-08-19T04:55:00;1.0;;;1.0;;
48679;SDS011;34475;51.658;5.634;2022-08-19T04:56:05;1.0;;;1.0;;
48679;SDS011;34475;51.658;5.634;2022-08-19T04:57:00;1.0;;;1.0;;
48679;SDS011;34475;51.658;5.634;2022-08-19T04:58:00;1.0;;;1.0;;
48679;SDS011;34475;51.658;5.634;2022-08-19T04:59:03;1.0;;;1.0;;
48679;SDS011;34475;51.658;5.634;2022-08-19T05:00:00;1.0;;;1.0;;
48679;SDS011;34475;51.658;5.634;2022-08-19T05:01:00;1.0;;;1.0;;
48679;SDS011;34475;51.658;5.634;2022-08-19T05:02:00;1.0;;;1.0;;
48679;SDS011;34475;51.658;5.634;2022-08-19T05:03:02;1.0;;;1.0;;
48679;SDS011;34475;51.658;5.634;2022-08-19T05:04:02;1.0;;;1.0;;
48679;SDS011;34475;51.658;5.634;2022-08-19T05:05:00;1.0;;;1.0;;
48679;SDS011;34475;51.658;5.634;2022-08-19T05:06:09;1.0;;;1.0;;
48679;SDS011;34475;51.658;5.634;2022-08-19T05:07:01;1.0;;;1.0;;
48679;SDS011;34475;51.658;5.634;2022-08-19T05:08:00;1.0;;;1.0;;
48679;SDS011;34475;51.658;5.634;2022-08-19T05:09:03;1.0;;;1.0;;
48679;SDS011;34475;51.658;5.634;2022-08-19T05:10:00;1.0;;;1.0;;
48679;SDS011;34475;51.658;5.634;2022-08-19T05:11:00;1.0;;;1.0;;
48679;SDS011;34475;51.658;5.634;2022-08-19T05:12:00;1.0;;;1.0;;
48679;SDS011;34475;51.658;5.634;2022-08-19T05:13:00;1.0;;;1.0;;
48679;SDS011;34475;51.658;5.634;2022-08-19T05:14:00;1.0;;;1.0;;
48679;SDS011;34475;51.658;5.634;2022-08-19T05:15:01;1.0;;;1.0;;
48679;SDS011;34475;51.658;5.634;2022-08-19T05:16:00;1.0;;;1.0;;
48679;SDS011;34475;51.658;5.634;2022-08-19T05:17:10;1.0;;;1.0;;
48679;SDS011;34475;51.658;5.634;2022-08-19T05:18:10;1.0;;;1.0;;
48679;SDS011;34475;51.658;5.634;2022-08-19T05:19:10;1.0;;;1.0;;
48679;SDS011;34475;51.658;5.634;2022-08-19T05:20:10;1.0;;;1.0;;
48679;SDS011;34475;51.658;5.634;2022-08-19T05:21:16;1.0;;;1.0;;
48679;SDS011;34475;51.658;5.634;2022-08-19T05:22:10;1.0;;;1.0;;
48679;SDS011;34475;51.658;5.634;2022-08-19T05:23:01;1.0;;;1.0;;
48679;SDS011;34475;51.658;5.634;2022-08-19T05:24:00;1.0;;;1.0;;
48679;SDS011;34475;51.658;5.634;2022-08-19T05:25:14;0.8;;;0.8;;
48679;SDS011;34475;51.658;5.634;2022-08-19T05:26:00;0.8;;;0.8;;
48679;SDS011;34475;51.658;5.634;2022-08-19T05:27:02;0.8;;;0.8;;
48679;SDS011;34475;51.658;5.634;2022-08-19T05:28:00;0.8;;;0.8;;
48679;SDS011;34475;51.658;5.634;2022-08-19T05:29:00;0.8;;;0.8;;
48679;SDS011;34475;51.658;5.634;2022-08-19T05:30:01;0.8;;;0.8;;
48679;SDS011;34475;51.658;5.634;2022-08-19T05:31:00;0.8;;;0.8;;
48679;SDS011;34475;51.658;5.634;2022-08-19T05:32:02;0.8;;;0.8;;
48679;SDS011;34475;51.658;5.634;2022-08-19T05:33:00;0.8;;;0.8;;
48679;SDS011;34475;51.658;5.634;2022-08-19T05:34:00;0.8;;;0.8;;
48679;SDS011;34475;51.658;5.634;2022-08-19T05:35:00;0.8;;;0.8;;
48679;SDS011;34475;51.658;5.634;2022-08-19T05:36:01;0.8;;;0.8;;
48679;SDS011;34475;51.658;5.634;2022-08-19T05:37:02;0.8;;;0.8;;
48679;SDS011;34475;51.658;5.634;2022-08-19T05:38:00;0.8;;;0.8;;
48679;SDS011;34475;51.658;5.634;2022-08-19T05:39:01;0.8;;;0.8;;
48679;SDS011;34475;51.658;5.634;2022-08-19T05:40:01;0.8;;;0.8;;
48679;SDS011;34475;51.658;5.634;2022-08-19T05:41:00;0.8;;;0.8;;
48679;SDS011;34475;51.658;5.634;2022-08-19T05:42:04;0.8;;;0.8;;
48679;SDS011;34475;51.658;5.634;2022-08-19T05:43:00;0.8;;;0.8;;
48679;SDS011;34475;51.658;5.634;2022-08-19T05:44:05;0.8;;;0.8;;
48679;SDS011;34475;51.658;5.634;2022-08-19T05:45:00;0.7;;;0.7;;
48679;SDS011;34475;51.658;5.634;2022-08-19T05:46:00;0.7;;;0.7;;
48679;SDS011;34475;51.658;5.634;2022-08-19T05:47:02;0.7;;;0.7;;
48679;SDS011;34475;51.658;5.634;2022-08-19T05:48:00;0.7;;;0.7;;
48679;SDS011;34475;51.658;5.634;2022-08-19T05:49:00;0.7;;;0.7;;
48679;SDS011;34475;51.658;5.634;2022-08-19T05:50:02;0.7;;;0.7;;
48679;SDS011;34475;51.658;5.634;2022-08-19T05:51:05;0.7;;;0.7;;
48679;SDS011;34475;51.658;5.634;2022-08-19T05:52:02;0.7;;;0.7;;
48679;SDS011;34475;51.658;5.634;2022-08-19T05:53:00;0.7;;;0.7;;
48679;SDS011;34475;51.658;5.634;2022-08-19T05:54:01;0.7;;;0.7;;
48679;SDS011;34475;51.658;5.634;2022-08-19T05:55:00;0.7;;;0.7;;
48679;SDS011;34475;51.658;5.634;2022-08-19T05:56:09;0.7;;;0.7;;
48679;SDS011;34475;51.658;5.634;2022-08-19T05:57:00;0.7;;;0.7;;
48679;SDS011;34475;51.658;5.634;2022-08-19T05:58:01;0.7;;;0.7;;
48679;SDS011;34475;51.658;5.634;2022-08-19T05:59:00;0.7;;;0.7;;
48679;SDS011;34475;51.658;5.634;2022-08-19T06:00:03;0.7;;;0.7;;
48679;SDS011;34475;51.658;5.634;2022-08-19T06:01:09;0.7;;;0.7;;
48679;SDS011;34475;51.658;5.634;2022-08-19T06:02:00;0.7;;;0.7;;
48679;SDS011;34475;51.658;5.634;2022-08-19T06:03:03;0.7;;;0.7;;
48679;SDS011;34475;51.658;5.634;2022-08-19T06:04:00;0.7;;;0.7;;
48679;SDS011;34475;51.658;5.634;2022-08-19T06:05:01;1.0;;;1.0;;
48679;SDS011;34475;51.658;5.634;2022-08-19T06:06:00;1.0;;;1.0;;
48679;SDS011;34475;51.658;5.634;2022-08-19T06:07:10;1.0;;;1.0;;
48679;SDS011;34475;51.658;5.634;2022-08-19T06:08:00;1.0;;;1.0;;
48679;SDS011;34475;51.658;5.634;2022-08-19T06:09:01;1.0;;;1.0;;
48679;SDS011;34475;51.658;5.634;2022-08-19T06:10:01;1.0;;;1.0;;
48679;SDS011;34475;51.658;5.634;2022-08-19T06:11:19;1.0;;;1.0;;
48679;SDS011;34475;51.658;5.634;2022-08-19T06:12:02;1.0;;;1.0;;
48679;SDS011;34475;51.658;5.634;2022-08-19T06:13:00;1.0;;;1.0;;
48679;SDS011;34475;51.658;5.634;2022-08-19T06:14:04;1.0;;;1.0;;